Time;durP1;ratioP1;P1;durP2;ratioP2;P2;SDS_P1;SDS_P2;PMS_P1;PMS_P2;Temp;Humidity;BMP_temperature;BMP_pressure;BME280_temperature;BME280_humidity;BME280_pressure;Samples;Min_cycle;Max_cycle;Signal;HPM_P1;HPM_P2
2022/04/29 00:02:06;;;;;;;;;44.75;35.75;;;;;;;;5015950;28;8786;-66
2022/04/29 00:04:33;;;;;;;;;39.75;34.50;;;;;;;;5016616;28;8739;-65
2022/04/29 00:07:00;;;;;;;;;40.50;35.25;;;;;;;;5017619;28;8739;-66
2022/04/29 00:09:27;;;;;;;;;42.25;34.50;;;;;;;;5028978;28;9265;-66
2022/04/29 00:11:54;;;;;;;;;42.00;34.50;;;;;;;;5024492;28;8746;-66
2022/04/29 00:14:23;;;;;;;;;36.75;32.00;;;;;;;;5015231;28;8751;-65
2022/04/29 00:16:49;;;;;;;;;40.00;34.00;;;;;;;;5016620;28;8770;-66
2022/04/29 00:19:16;;;;;;;;;36.50;33.00;;;;;;;;5017509;28;8748;-66
2022/04/29 00:21:43;;;;;;;;;39.25;33.00;;;;;;;;5016838;28;8731;-66
2022/04/29 00:24:10;;;;;;;;;42.00;33.25;;;;;;;;4998552;28;8784;-66
2022/04/29 00:26:37;;;;;;;;;38.75;33.75;;;;;;;;4997142;28;9368;-65
2022/04/29 00:29:04;;;;;;;;;40.25;33.50;;;;;;;;4997190;28;8745;-66
2022/04/29 00:31:31;;;;;;;;;46.50;37.00;;;;;;;;4996257;28;8831;-65
2022/04/29 00:33:58;;;;;;;;;47.75;36.75;;;;;;;;4995788;28;8729;-65
2022/04/29 00:36:25;;;;;;;;;44.50;37.25;;;;;;;;4978752;28;8741;-65
2022/04/29 00:38:52;;;;;;;;;47.00;38.00;;;;;;;;5012012;28;9083;-66
2022/04/29 00:41:19;;;;;;;;;40.25;33.25;;;;;;;;5015795;28;8763;-65
2022/04/29 00:43:46;;;;;;;;;42.50;33.50;;;;;;;;5013600;28;8770;-66
2022/04/29 00:46:12;;;;;;;;;43.75;35.75;;;;;;;;5015023;28;9411;-66
2022/04/29 00:48:39;;;;;;;;;46.50;36.50;;;;;;;;5015643;28;8739;-65
2022/04/29 00:51:06;;;;;;;;;33.75;30.00;;;;;;;;5015885;28;8889;-66
2022/04/29 00:53:33;;;;;;;;;40.00;33.00;;;;;;;;5002401;28;8733;-66
2022/04/29 00:55:59;;;;;;;;;35.50;33.00;;;;;;;;4996515;28;8721;-66
2022/04/29 00:58:45;;;;;;;;;42.25;33.75;;;;;;;;4995701;28;8749;-64
2022/04/29 01:01:14;;;;;;;;;40.00;34.75;;;;;;;;4979294;28;8820;-65
2022/04/29 01:03:41;;;;;;;;;36.50;33.00;;;;;;;;4996384;28;8933;-66
2022/04/29 01:06:08;;;;;;;;;31.25;28.25;;;;;;;;4996183;28;8773;-65
2022/04/29 01:08:35;;;;;;;;;40.50;35.00;;;;;;;;5009136;28;8739;-66
2022/04/29 01:11:01;;;;;;;;;38.25;33.50;;;;;;;;5015589;28;9393;-66
2022/04/29 01:13:28;;;;;;;;;40.50;35.00;;;;;;;;5029177;28;8773;-65
2022/04/29 01:15:58;;;;;;;;;43.00;35.50;;;;;;;;5016373;28;8763;-65
2022/04/29 01:18:27;;;;;;;;;40.50;33.50;;;;;;;;5014308;28;9006;-65
2022/04/29 01:21:04;;;;;;;;;42.50;33.00;;;;;;;;5015462;28;8857;-66
2022/04/29 01:23:30;;;;;;;;;41.50;34.75;;;;;;;;5000249;28;8729;-66
2022/04/29 01:25:57;;;;;;;;;40.50;32.75;;;;;;;;4997529;28;8738;-66
2022/04/29 01:28:24;;;;;;;;;39.00;33.75;;;;;;;;4999594;28;8888;-66
2022/04/29 01:30:51;;;;;;;;;47.50;36.25;;;;;;;;5019447;28;8800;-66
2022/04/29 01:33:21;;;;;;;;;38.50;32.25;;;;;;;;5018984;28;8826;-64
2022/04/29 01:35:47;;;;;;;;;35.25;31.25;;;;;;;;5018713;28;8890;-66
2022/04/29 01:38:14;;;;;;;;;26.75;23.00;;;;;;;;5029415;28;8879;-66
2022/04/29 01:40:41;;;;;;;;;35.25;30.25;;;;;;;;5037961;28;8761;-65
2022/04/29 01:43:07;;;;;;;;;37.00;32.25;;;;;;;;5039498;28;8797;-66
2022/04/29 01:45:34;;;;;;;;;35.00;32.00;;;;;;;;5019203;28;8978;-66
2022/04/29 01:48:01;;;;;;;;;35.00;30.25;;;;;;;;5038932;28;8808;-66
2022/04/29 01:50:28;;;;;;;;;27.00;25.25;;;;;;;;5038004;28;8833;-66
2022/04/29 01:52:55;;;;;;;;;38.00;33.50;;;;;;;;5038049;28;8769;-66
2022/04/29 01:55:22;;;;;;;;;36.25;32.50;;;;;;;;5038732;28;8773;-65
2022/04/29 01:57:52;;;;;;;;;37.50;32.75;;;;;;;;5039058;28;9054;-66
2022/04/29 02:00:19;;;;;;;;;43.00;34.00;;;;;;;;5020744;28;8792;-64
2022/04/29 02:02:46;;;;;;;;;38.75;33.25;;;;;;;;5019831;28;8781;-66
2022/04/29 02:05:12;;;;;;;;;32.25;29.25;;;;;;;;5038599;28;8797;-66
2022/04/29 02:07:40;;;;;;;;;32.25;28.50;;;;;;;;5020289;28;8774;-65
2022/04/29 02:10:07;;;;;;;;;36.00;31.00;;;;;;;;5038738;28;8761;-66
2022/04/29 02:12:35;;;;;;;;;25.75;25.75;;;;;;;;5038437;28;8888;-65
2022/04/29 02:15:02;;;;;;;;;31.50;29.50;;;;;;;;5020787;28;8927;-66
2022/04/29 02:17:29;;;;;;;;;31.75;30.00;;;;;;;;5019989;28;9307;-65
2022/04/29 02:19:56;;;;;;;;;36.50;32.00;;;;;;;;5038371;28;8774;-65
2022/04/29 02:22:22;;;;;;;;;37.25;33.50;;;;;;;;5038327;28;8762;-65
2022/04/29 02:24:52;;;;;;;;;43.00;34.25;;;;;;;;5037520;28;8761;-62
2022/04/29 02:27:19;;;;;;;;;43.75;33.75;;;;;;;;5038003;28;8741;-65
2022/04/29 02:29:46;;;;;;;;;39.75;33.25;;;;;;;;5038189;28;8886;-66
2022/04/29 02:32:12;;;;;;;;;41.00;33.25;;;;;;;;5036570;28;8797;-66
2022/04/29 02:34:41;;;;;;;;;32.50;28.25;;;;;;;;5036993;28;8773;-66
2022/04/29 02:37:08;;;;;;;;;34.25;31.50;;;;;;;;5019875;28;8788;-66
2022/04/29 02:39:35;;;;;;;;;28.25;26.00;;;;;;;;5026651;28;8830;-65
2022/04/29 02:42:03;;;;;;;;;36.50;31.25;;;;;;;;5037757;28;8790;-66
2022/04/29 02:44:29;;;;;;;;;34.00;31.33;;;;;;;;5035948;28;8765;-65
2022/04/29 02:47:08;;;;;;;;;40.50;30.50;;;;;;;;5036158;28;8774;-65
2022/04/29 02:49:39;;;;;;;;;38.25;32.25;;;;;;;;5033289;28;8781;-63
2022/04/29 02:52:09;;;;;;;;;34.75;28.00;;;;;;;;5037533;28;8765;-65
2022/04/29 02:54:36;;;;;;;;;30.75;29.75;;;;;;;;5037179;28;8784;-64
2022/04/29 02:57:03;;;;;;;;;41.25;33.00;;;;;;;;5038194;28;8786;-65
2022/04/29 02:59:30;;;;;;;;;30.75;29.75;;;;;;;;5037220;28;8809;-64
2022/04/29 03:01:56;;;;;;;;;39.00;30.00;;;;;;;;5038246;28;8879;-65
2022/04/29 03:04:23;;;;;;;;;36.00;31.25;;;;;;;;5020324;28;8753;-64
2022/04/29 03:06:50;;;;;;;;;39.50;30.25;;;;;;;;5055931;28;8746;-64
2022/04/29 03:09:20;;;;;;;;;28.50;26.00;;;;;;;;5018869;28;8755;-64
2022/04/29 03:11:48;;;;;;;;;27.25;25.00;;;;;;;;5015250;28;8969;-65
2022/04/29 03:14:15;;;;;;;;;31.50;27.50;;;;;;;;5014456;28;8798;-64
2022/04/29 03:16:42;;;;;;;;;26.50;26.25;;;;;;;;5012860;28;9430;-65
2022/04/29 03:19:08;;;;;;;;;24.50;23.00;;;;;;;;5013694;28;8739;-65
2022/04/29 03:21:35;;;;;;;;;22.00;20.25;;;;;;;;5014312;28;8948;-71
2022/04/29 03:24:03;;;;;;;;;29.75;26.50;;;;;;;;4995176;28;8872;-64
2022/04/29 03:26:30;;;;;;;;;28.75;26.50;;;;;;;;4994627;28;9267;-65
2022/04/29 03:28:57;;;;;;;;;23.50;20.75;;;;;;;;4994270;28;8780;-65
2022/04/29 03:31:24;;;;;;;;;31.25;25.25;;;;;;;;4977136;28;8783;-64
2022/04/29 03:33:51;;;;;;;;;24.75;24.50;;;;;;;;4994711;28;8737;-65
2022/04/29 03:36:18;;;;;;;;;22.00;19.00;;;;;;;;4994404;28;8740;-65
2022/04/29 03:38:46;;;;;;;;;27.25;27.00;;;;;;;;5008394;28;8733;-64
2022/04/29 03:41:13;;;;;;;;;25.75;25.75;;;;;;;;5012808;28;8770;-65
2022/04/29 03:43:40;;;;;;;;;24.75;24.75;;;;;;;;5013398;28;8793;-66
2022/04/29 03:46:07;;;;;;;;;34.25;27.50;;;;;;;;5014834;28;8786;-65
2022/04/29 03:51:20;;;;;;;;;43.25;36.00;;;;;;;;4972994;28;9388;-66
2022/04/29 03:53:50;;;;;;;;;43.50;34.75;;;;;;;;4998526;28;8785;-66
2022/04/29 03:56:17;;;;;;;;;34.00;30.75;;;;;;;;4993081;28;8737;-64
2022/04/29 03:58:44;;;;;;;;;37.25;31.75;;;;;;;;4994010;28;8816;-67
2022/04/29 04:01:12;;;;;;;;;36.25;33.25;;;;;;;;4993741;28;8880;-67
2022/04/29 04:03:40;;;;;;;;;37.00;30.25;;;;;;;;4993633;28;9532;-65
2022/04/29 04:08:51;;;;;;;;;40.50;34.25;;;;;;;;5009424;28;8877;-63
2022/04/29 04:11:18;;;;;;;;;37.25;33.00;;;;;;;;5013661;28;8747;-62
2022/04/29 04:13:46;;;;;;;;;35.75;31.75;;;;;;;;5012035;28;8908;-64
2022/04/29 04:16:12;;;;;;;;;37.00;32.75;;;;;;;;5013579;28;8794;-64
2022/04/29 04:18:39;;;;;;;;;37.50;31.75;;;;;;;;5012332;28;8818;-64
2022/04/29 04:21:06;;;;;;;;;38.00;32.25;;;;;;;;5015281;28;8769;-65
2022/04/29 04:23:33;;;;;;;;;38.50;33.50;;;;;;;;5032212;28;8788;-64
2022/04/29 04:26:00;;;;;;;;;44.75;35.50;;;;;;;;5011448;28;8774;-64
2022/04/29 04:28:27;;;;;;;;;44.75;38.50;;;;;;;;4995521;28;8795;-63
2022/04/29 04:30:54;;;;;;;;;50.00;39.75;;;;;;;;5013565;28;8802;-64
2022/04/29 04:33:20;;;;;;;;;45.25;37.50;;;;;;;;5014157;28;9439;-63
2022/04/29 04:35:47;;;;;;;;;53.75;43.25;;;;;;;;4996839;28;8911;-64
2022/04/29 04:38:14;;;;;;;;;48.00;39.50;;;;;;;;5003574;28;8867;-64
2022/04/29 04:40:42;;;;;;;;;37.50;34.00;;;;;;;;4995106;28;8819;-64
2022/04/29 04:43:09;;;;;;;;;45.75;39.00;;;;;;;;4993615;28;8809;-64
2022/04/29 04:45:36;;;;;;;;;48.75;38.50;;;;;;;;4993518;28;8800;-64
2022/04/29 04:48:03;;;;;;;;;46.50;38.25;;;;;;;;4992881;28;8779;-64
2022/04/29 04:50:30;;;;;;;;;48.25;40.50;;;;;;;;4996055;28;8934;-63
2022/04/29 04:52:56;;;;;;;;;44.75;38.50;;;;;;;;5003243;28;8767;-64
2022/04/29 04:55:23;;;;;;;;;38.25;32.50;;;;;;;;5016501;28;8755;-63
2022/04/29 04:57:50;;;;;;;;;45.75;38.00;;;;;;;;5016060;28;8841;-64
2022/04/29 05:00:17;;;;;;;;;48.00;39.25;;;;;;;;5018196;28;8836;-64
2022/04/29 05:02:43;;;;;;;;;46.75;37.50;;;;;;;;5018747;28;8786;-63
2022/04/29 05:05:10;;;;;;;;;43.75;36.75;;;;;;;;5019633;28;8795;-63
2022/04/29 05:07:38;;;;;;;;;42.75;36.25;;;;;;;;5013045;28;8804;-63
2022/04/29 05:10:08;;;;;;;;;43.25;35.00;;;;;;;;5000668;28;8808;-64
2022/04/29 05:12:42;;;;;;;;;45.75;35.50;;;;;;;;4999714;28;8762;-63
2022/04/29 05:15:09;;;;;;;;;44.00;36.00;;;;;;;;5014721;28;8827;-64
2022/04/29 05:17:35;;;;;;;;;41.75;34.25;;;;;;;;4999713;28;8884;-64
2022/04/29 05:20:03;;;;;;;;;39.25;35.00;;;;;;;;5000096;28;8781;-64
2022/04/29 05:22:30;;;;;;;;;45.25;36.75;;;;;;;;5002243;28;9446;-63
2022/04/29 05:24:57;;;;;;;;;39.25;30.75;;;;;;;;5021283;28;8762;-64
2022/04/29 05:27:23;;;;;;;;;37.00;32.75;;;;;;;;5039463;28;8746;-63
2022/04/29 05:29:50;;;;;;;;;38.00;33.50;;;;;;;;5039179;28;8749;-64
2022/04/29 05:32:17;;;;;;;;;39.00;32.25;;;;;;;;5020921;28;8809;-62
2022/04/29 05:34:44;;;;;;;;;40.25;34.25;;;;;;;;5039116;28;8741;-64
2022/04/29 05:37:11;;;;;;;;;36.50;32.50;;;;;;;;5038955;28;8872;-64
2022/04/29 05:42:23;;;;;;;;;41.00;34.25;;;;;;;;5038436;28;8744;-63
2022/04/29 05:44:50;;;;;;;;;38.00;32.50;;;;;;;;5038894;28;8833;-64
2022/04/29 05:47:16;;;;;;;;;42.25;36.00;;;;;;;;5042090;28;8784;-64
2022/04/29 05:49:43;;;;;;;;;40.50;34.50;;;;;;;;5035624;28;8807;-64
2022/04/29 05:52:13;;;;;;;;;44.00;35.50;;;;;;;;5018496;28;8771;-63
2022/04/29 05:54:39;;;;;;;;;44.75;36.50;;;;;;;;4999979;28;8761;-64
2022/04/29 05:57:06;;;;;;;;;41.00;34.75;;;;;;;;4999867;28;8737;-64
2022/04/29 05:59:33;;;;;;;;;37.00;31.25;;;;;;;;4999621;28;8749;-63
2022/04/29 06:02:00;;;;;;;;;40.75;35.50;;;;;;;;4999232;28;9410;-64
2022/04/29 06:04:27;;;;;;;;;43.25;35.00;;;;;;;;4981960;28;8746;-63
2022/04/29 06:06:53;;;;;;;;;34.00;32.25;;;;;;;;5000173;28;8764;-64
2022/04/29 06:09:20;;;;;;;;;34.25;29.75;;;;;;;;5018230;28;8762;-63
2022/04/29 06:11:47;;;;;;;;;36.75;30.00;;;;;;;;5016355;28;8738;-65
2022/04/29 06:14:14;;;;;;;;;40.00;34.75;;;;;;;;5033478;28;8782;-64
2022/04/29 06:16:40;;;;;;;;;42.00;33.25;;;;;;;;5019927;28;8719;-64
2022/04/29 06:19:07;;;;;;;;;40.50;35.25;;;;;;;;5018656;28;9337;-64
2022/04/29 06:21:34;;;;;;;;;35.25;29.25;;;;;;;;5017503;28;8837;-64
2022/04/29 06:24:01;;;;;;;;;46.00;36.00;;;;;;;;4991328;28;8717;-64
2022/04/29 06:26:27;;;;;;;;;28.75;25.00;;;;;;;;4998377;28;8744;-64
2022/04/29 06:28:54;;;;;;;;;32.00;30.75;;;;;;;;4999140;28;9343;-64
2022/04/29 06:31:21;;;;;;;;;34.25;30.00;;;;;;;;4998990;28;8769;-64
2022/04/29 06:33:48;;;;;;;;;37.00;32.50;;;;;;;;5013821;28;8788;-64
2022/04/29 06:36:14;;;;;;;;;39.25;32.25;;;;;;;;4998305;28;8773;-64
2022/04/29 06:38:41;;;;;;;;;42.50;35.50;;;;;;;;5013484;28;8774;-64
2022/04/29 06:41:08;;;;;;;;;45.00;36.00;;;;;;;;5001394;28;9010;-63
2022/04/29 06:43:35;;;;;;;;;43.75;35.75;;;;;;;;5018587;28;8747;-63
2022/04/29 06:46:02;;;;;;;;;37.75;31.50;;;;;;;;5018439;28;8774;-64
2022/04/29 06:48:28;;;;;;;;;41.00;33.75;;;;;;;;5017536;28;8794;-64
2022/04/29 06:50:55;;;;;;;;;45.75;38.00;;;;;;;;5018107;28;8817;-64
2022/04/29 06:53:22;;;;;;;;;50.50;40.25;;;;;;;;5017908;28;8776;-64
2022/04/29 06:55:49;;;;;;;;;40.50;35.00;;;;;;;;5034898;28;8869;-64
2022/04/29 06:58:16;;;;;;;;;37.25;30.50;;;;;;;;5019678;28;8791;-64
2022/04/29 07:00:45;;;;;;;;;40.25;34.75;;;;;;;;5016785;28;8854;-62
2022/04/29 07:03:12;;;;;;;;;37.00;33.25;;;;;;;;5016768;28;8807;-64
2022/04/29 07:05:39;;;;;;;;;42.00;34.75;;;;;;;;5017984;28;8783;-64
2022/04/29 07:08:06;;;;;;;;;40.50;34.50;;;;;;;;5008386;28;8789;-63
2022/04/29 07:10:33;;;;;;;;;39.50;34.00;;;;;;;;4997923;28;8824;-64
2022/04/29 07:13:03;;;;;;;;;45.50;39.00;;;;;;;;4998760;28;8832;-63
2022/04/29 07:15:30;;;;;;;;;41.75;34.25;;;;;;;;4998890;28;8773;-64
2022/04/29 07:17:57;;;;;;;;;42.00;33.75;;;;;;;;4998194;28;8768;-63
2022/04/29 07:20:23;;;;;;;;;39.00;34.00;;;;;;;;4997744;28;8768;-64
2022/04/29 07:22:50;;;;;;;;;42.00;36.25;;;;;;;;5004159;28;8774;-64
2022/04/29 07:25:19;;;;;;;;;47.75;36.00;;;;;;;;5013459;28;8876;-64
2022/04/29 07:27:48;;;;;;;;;45.25;35.75;;;;;;;;4998427;28;8738;-63
2022/04/29 07:30:18;;;;;;;;;43.50;37.50;;;;;;;;5028542;28;8800;-64
2022/04/29 07:32:44;;;;;;;;;44.00;33.75;;;;;;;;4997931;28;8844;-64
2022/04/29 07:43:26;;;;;;;;;46.00;38.00;;;;;;;;4978287;28;8744;-63
2022/04/29 07:45:53;;;;;;;;;48.75;37.75;;;;;;;;4978804;28;8768;-63
2022/04/29 07:48:20;;;;;;;;;46.00;36.75;;;;;;;;4978055;28;8776;-63
2022/04/29 07:50:47;;;;;;;;;36.75;33.50;;;;;;;;4978228;28;8792;-64
2022/04/29 07:53:14;;;;;;;;;41.50;36.00;;;;;;;;4988169;28;8788;-63
2022/04/29 07:55:41;;;;;;;;;45.00;35.25;;;;;;;;4997640;28;8753;-65
2022/04/29 07:58:09;;;;;;;;;45.75;39.00;;;;;;;;4998034;28;8912;-65
2022/04/29 08:00:37;;;;;;;;;38.25;34.75;;;;;;;;4997356;28;8757;-65
2022/04/29 08:03:04;;;;;;;;;45.25;38.00;;;;;;;;4997698;28;8785;-65
2022/04/29 08:05:31;;;;;;;;;46.25;38.75;;;;;;;;4997049;28;8815;-64
2022/04/29 08:08:01;;;;;;;;;42.00;35.50;;;;;;;;4989258;28;8840;-64
2022/04/29 08:10:29;;;;;;;;;49.00;39.75;;;;;;;;4992282;28;8812;-64
2022/04/29 08:12:59;;;;;;;;;49.00;38.75;;;;;;;;4978255;28;8842;-65
2022/04/29 08:15:26;;;;;;;;;37.25;32.50;;;;;;;;4977584;28;8768;-65
2022/04/29 08:17:53;;;;;;;;;45.50;39.25;;;;;;;;5000074;28;8790;-65
2022/04/29 08:20:20;;;;;;;;;51.25;41.75;;;;;;;;4976328;28;9425;-65
2022/04/29 08:22:47;;;;;;;;;47.00;38.25;;;;;;;;5021756;28;8764;-65
2022/04/29 08:25:18;;;;;;;;;46.50;37.50;;;;;;;;5039115;28;8783;-65
2022/04/29 08:27:46;;;;;;;;;43.50;34.25;;;;;;;;5038671;28;8765;-64
2022/04/29 08:30:13;;;;;;;;;44.25;36.50;;;;;;;;5038134;28;8771;-65
2022/04/29 08:32:40;;;;;;;;;43.25;34.00;;;;;;;;5056308;28;8805;-64
2022/04/29 08:35:09;;;;;;;;;47.50;39.00;;;;;;;;5055795;28;8800;-65
2022/04/29 08:37:36;;;;;;;;;51.25;41.50;;;;;;;;5048874;28;8745;-64
2022/04/29 08:40:03;;;;;;;;;47.50;38.00;;;;;;;;5017009;28;8747;-64
2022/04/29 08:42:30;;;;;;;;;49.75;40.50;;;;;;;;5016118;28;8755;-65
2022/04/29 08:44:58;;;;;;;;;43.50;37.75;;;;;;;;5031532;28;8743;-65
2022/04/29 08:47:25;;;;;;;;;48.25;37.50;;;;;;;;5016152;28;8838;-65
2022/04/29 08:49:51;;;;;;;;;47.75;40.00;;;;;;;;5016216;28;8755;-65
2022/04/29 08:52:18;;;;;;;;;47.75;39.75;;;;;;;;5014655;28;8859;-62
2022/04/29 09:00:15;;;;;;;;;48.50;40.50;;;;;;;;4982104;28;8749;-65
2022/04/29 09:02:43;;;;;;;;;46.25;37.75;;;;;;;;4996594;28;9438;-63
2022/04/29 09:05:11;;;;;;;;;48.75;39.50;;;;;;;;4996638;28;8805;-63
2022/04/29 09:07:56;;;;;;;;;44.75;37.50;;;;;;;;5001473;28;8779;-63
2022/04/29 09:10:24;;;;;;;;;46.50;38.50;;;;;;;;5016624;28;8877;-63
2022/04/29 09:12:52;;;;;;;;;50.50;40.50;;;;;;;;5031751;28;8903;-63
2022/04/29 09:15:18;;;;;;;;;51.25;42.50;;;;;;;;5014926;28;8739;-62
2022/04/29 09:17:51;;;;;;;;;47.25;38.00;;;;;;;;5016789;28;8864;-64
2022/04/29 09:20:21;;;;;;;;;45.75;38.50;;;;;;;;5016204;28;9534;-63
2022/04/29 09:22:49;;;;;;;;;49.25;39.75;;;;;;;;5008395;28;8776;-63
2022/04/29 09:25:16;;;;;;;;;46.00;37.75;;;;;;;;4998885;28;8771;-65
2022/04/29 09:27:56;;;;;;;;;49.50;39.00;;;;;;;;4978906;28;8752;-65
2022/04/29 09:30:37;;;;;;;;;44.50;35.00;;;;;;;;4994914;28;8795;-65
2022/04/29 09:33:04;;;;;;;;;49.75;41.75;;;;;;;;4996811;28;8765;-65
2022/04/29 09:35:37;;;;;;;;;40.75;35.25;;;;;;;;4978983;28;8879;-65
2022/04/29 09:40:49;;;;;;;;;48.75;40.75;;;;;;;;5016188;28;8782;-65
2022/04/29 09:43:16;;;;;;;;;48.50;40.25;;;;;;;;5016869;28;8752;-65
2022/04/29 09:45:43;;;;;;;;;49.50;41.50;;;;;;;;5014901;28;8752;-66
2022/04/29 09:48:10;;;;;;;;;50.50;41.75;;;;;;;;5034285;28;9871;-65
2022/04/29 09:50:47;;;;;;;;;48.75;39.00;;;;;;;;5028017;28;10312;-66
2022/04/29 09:53:26;;;;;;;;;44.25;38.25;;;;;;;;5009428;28;8789;-65
2022/04/29 09:56:09;;;;;;;;;47.75;40.75;;;;;;;;4982950;28;8761;-65
2022/04/29 09:58:35;;;;;;;;;48.75;40.00;;;;;;;;4998221;28;8749;-65
2022/04/29 10:01:04;;;;;;;;;36.75;32.50;;;;;;;;5000293;28;8872;-65
2022/04/29 10:03:31;;;;;;;;;47.50;39.00;;;;;;;;4998309;28;9055;-65
2022/04/29 10:06:00;;;;;;;;;45.75;36.00;;;;;;;;4999835;28;8777;-65
2022/04/29 10:08:27;;;;;;;;;45.50;38.00;;;;;;;;5009677;28;10251;-65
2022/04/29 10:10:55;;;;;;;;;53.50;41.00;;;;;;;;5019262;28;8782;-65
2022/04/29 10:13:23;;;;;;;;;50.25;41.25;;;;;;;;5018046;28;8897;-65
2022/04/29 10:15:51;;;;;;;;;43.25;35.75;;;;;;;;5035088;28;8745;-65
2022/04/29 10:21:17;;;;;;;;;50.00;41.00;;;;;;;;5018710;28;8743;-65
2022/04/29 10:23:49;;;;;;;;;51.00;40.25;;;;;;;;5012627;28;9449;-65
2022/04/29 10:26:17;;;;;;;;;48.75;39.50;;;;;;;;4998988;28;9473;-65
2022/04/29 10:28:44;;;;;;;;;48.25;40.00;;;;;;;;4982226;28;8753;-65
2022/04/29 10:31:16;;;;;;;;;49.25;40.75;;;;;;;;4999746;28;8781;-65
2022/04/29 10:33:43;;;;;;;;;50.50;39.00;;;;;;;;4998820;28;8741;-65
2022/04/29 10:36:10;;;;;;;;;47.50;39.25;;;;;;;;4999239;28;8816;-65
2022/04/29 10:38:41;;;;;;;;;49.50;40.25;;;;;;;;5011837;28;8791;-65
2022/04/29 10:41:08;;;;;;;;;48.75;41.50;;;;;;;;5018960;28;8801;-66
2022/04/29 10:43:38;;;;;;;;;54.00;44.00;;;;;;;;5018549;28;8770;-65
2022/04/29 10:46:05;;;;;;;;;46.00;36.75;;;;;;;;5019169;28;8746;-66
2022/04/29 10:48:35;;;;;;;;;51.25;41.00;;;;;;;;5017150;28;8759;-65
2022/04/29 10:51:12;;;;;;;;;53.50;42.75;;;;;;;;5018682;28;8779;-66
2022/04/29 10:53:40;;;;;;;;;49.50;40.50;;;;;;;;5018384;28;8791;-65
2022/04/29 10:56:26;;;;;;;;;47.75;38.50;;;;;;;;5015141;28;8764;-66
2022/04/29 10:58:52;;;;;;;;;45.75;38.75;;;;;;;;5017887;28;8759;-66
2022/04/29 11:01:27;;;;;;;;;50.00;40.00;;;;;;;;5018564;28;8755;-64
2022/04/29 11:03:54;;;;;;;;;53.75;43.75;;;;;;;;5036916;28;8741;-65
2022/04/29 11:06:21;;;;;;;;;58.25;43.25;;;;;;;;5018792;28;8809;-65
2022/04/29 11:08:49;;;;;;;;;50.25;41.25;;;;;;;;5003836;28;8792;-65
2022/04/29 11:11:16;;;;;;;;;51.25;43.75;;;;;;;;4998734;28;8836;-66
2022/04/29 11:13:44;;;;;;;;;53.75;41.25;;;;;;;;4998644;28;8791;-65
2022/04/29 11:16:12;;;;;;;;;48.75;39.50;;;;;;;;4999131;28;8772;-66
2022/04/29 11:18:40;;;;;;;;;55.00;43.75;;;;;;;;5013531;28;8765;-66
2022/04/29 11:26:45;;;;;;;;;53.00;43.00;;;;;;;;5016505;28;8810;-65
2022/04/29 11:29:15;;;;;;;;;52.00;42.75;;;;;;;;5018031;28;8778;-65
2022/04/29 11:31:41;;;;;;;;;53.25;41.75;;;;;;;;5017076;28;8790;-65
2022/04/29 11:34:09;;;;;;;;;50.00;41.25;;;;;;;;5033971;28;8767;-66
2022/04/29 11:36:36;;;;;;;;;50.50;42.00;;;;;;;;5017869;28;8782;-65
2022/04/29 11:39:03;;;;;;;;;55.50;44.75;;;;;;;;5017783;28;8779;-65
2022/04/29 11:41:30;;;;;;;;;56.50;44.50;;;;;;;;5016324;28;8865;-65
2022/04/29 11:43:57;;;;;;;;;54.50;45.00;;;;;;;;5018023;28;8782;-65
2022/04/29 11:46:24;;;;;;;;;55.00;42.75;;;;;;;;5018575;28;8824;-65
2022/04/29 11:49:09;;;;;;;;;50.00;40.25;;;;;;;;5018656;28;9424;-65
2022/04/29 11:51:35;;;;;;;;;53.25;43.50;;;;;;;;5016903;28;8811;-65
2022/04/29 11:54:03;;;;;;;;;52.25;42.50;;;;;;;;5018250;28;8778;-65
2022/04/29 11:56:33;;;;;;;;;54.00;45.00;;;;;;;;5018375;28;8810;-65
2022/04/29 11:59:00;;;;;;;;;51.50;43.75;;;;;;;;5018269;28;8774;-65
2022/04/29 12:01:28;;;;;;;;;49.00;40.75;;;;;;;;5018395;28;9116;-65
2022/04/29 12:03:55;;;;;;;;;55.25;44.25;;;;;;;;5018808;28;8744;-65
2022/04/29 12:06:22;;;;;;;;;55.50;45.00;;;;;;;;5018735;28;8755;-65
2022/04/29 12:08:48;;;;;;;;;52.25;43.00;;;;;;;;5016729;28;8779;-66
2022/04/29 12:11:31;;;;;;;;;53.00;43.75;;;;;;;;4994078;28;8852;-65
2022/04/29 12:14:18;;;;;;;;;57.25;46.25;;;;;;;;5018649;28;8786;-66
2022/04/29 12:16:47;;;;;;;;;52.25;43.00;;;;;;;;5016980;28;8841;-65
2022/04/29 12:19:18;;;;;;;;;55.25;43.75;;;;;;;;5018969;28;8770;-65
2022/04/29 12:21:57;;;;;;;;;52.25;43.50;;;;;;;;5017608;28;8798;-65
2022/04/29 12:24:24;;;;;;;;;51.50;42.00;;;;;;;;5016442;28;8759;-66
2022/04/29 12:27:09;;;;;;;;;53.50;42.00;;;;;;;;5016203;28;8891;-66
2022/04/29 12:34:48;;;;;;;;;57.25;45.00;;;;;;;;5017356;28;8791;-66
2022/04/29 12:35:13;;;;;;;;;52.50;41.75;;;;;;;;5017423;28;8779;-65
2022/04/29 12:37:40;;;;;;;;;55.60;46.40;;;;;;;;5016677;28;8755;-65
2022/04/29 12:40:11;;;;;;;;;51.75;44.25;;;;;;;;5016236;28;8731;-65
2022/04/29 12:42:37;;;;;;;;;60.80;48.60;;;;;;;;5015740;28;8798;-65
2022/04/29 12:45:10;;;;;;;;;54.25;45.00;;;;;;;;5015848;28;8759;-65
2022/04/29 12:47:41;;;;;;;;;54.75;45.75;;;;;;;;5015496;28;8751;-65
2022/04/29 12:50:26;;;;;;;;;54.25;44.50;;;;;;;;5016863;28;8778;-65
2022/04/29 12:53:00;;;;;;;;;54.25;42.25;;;;;;;;5017054;28;8759;-65
2022/04/29 12:55:30;;;;;;;;;54.75;43.75;;;;;;;;5032105;28;8728;-65
2022/04/29 12:58:19;;;;;;;;;53.50;43.50;;;;;;;;5017629;28;8828;-65
2022/04/29 13:00:48;;;;;;;;;58.75;46.75;;;;;;;;5017038;28;8805;-65
2022/04/29 13:03:19;;;;;;;;;50.00;41.25;;;;;;;;5015524;28;8793;-66
2022/04/29 13:05:45;;;;;;;;;56.50;45.25;;;;;;;;5016992;28;8786;-66
2022/04/29 13:08:12;;;;;;;;;58.25;46.50;;;;;;;;5016709;28;8794;-65
2022/04/29 13:10:46;;;;;;;;;53.75;44.25;;;;;;;;5016182;28;9439;-65
2022/04/29 13:13:13;;;;;;;;;56.25;45.50;;;;;;;;5016915;28;8798;-66
2022/04/29 13:15:44;;;;;;;;;58.50;47.50;;;;;;;;5016674;28;8817;-65
2022/04/29 13:18:11;;;;;;;;;53.25;43.75;;;;;;;;5015901;28;8949;-66
2022/04/29 13:20:38;;;;;;;;;59.40;48.80;;;;;;;;5017817;28;8791;-65
2022/04/29 13:23:05;;;;;;;;;59.60;47.60;;;;;;;;5020194;28;8839;-66
2022/04/29 13:25:35;;;;;;;;;59.50;48.50;;;;;;;;5024589;28;8810;-66
2022/04/29 13:28:02;;;;;;;;;61.80;49.80;;;;;;;;5040958;28;8758;-65
2022/04/29 13:30:29;;;;;;;;;60.80;48.00;;;;;;;;5040336;28;8805;-66
2022/04/29 13:32:56;;;;;;;;;62.00;49.20;;;;;;;;5040235;28;8785;-65
2022/04/29 13:35:23;;;;;;;;;56.25;45.00;;;;;;;;5039777;28;8868;-65
2022/04/29 13:37:50;;;;;;;;;62.75;51.25;;;;;;;;5039921;28;8753;-66
2022/04/29 13:40:16;;;;;;;;;59.60;49.20;;;;;;;;5023259;28;8753;-66
2022/04/29 13:42:43;;;;;;;;;63.00;49.25;;;;;;;;5039667;28;8746;-65
2022/04/29 13:45:13;;;;;;;;;62.75;49.50;;;;;;;;5039869;28;8773;-66
2022/04/29 13:47:41;;;;;;;;;64.60;51.00;;;;;;;;5022383;28;8925;-65
2022/04/29 13:50:08;;;;;;;;;55.60;47.00;;;;;;;;5040621;28;8774;-65
2022/04/29 13:55:20;;;;;;;;;69.20;52.80;;;;;;;;5040632;28;8734;-65
2022/04/29 13:57:47;;;;;;;;;69.80;55.20;;;;;;;;5038970;28;9389;-65
2022/04/29 14:00:14;;;;;;;;;68.40;52.20;;;;;;;;5021906;28;8854;-65
2022/04/29 14:02:41;;;;;;;;;66.60;51.80;;;;;;;;5039969;28;8761;-65
2022/04/29 14:05:08;;;;;;;;;68.20;55.00;;;;;;;;5039995;28;8742;-66
2022/04/29 14:07:35;;;;;;;;;70.00;56.00;;;;;;;;5039369;28;8785;-65
2022/04/29 14:10:02;;;;;;;;;66.00;51.20;;;;;;;;5022409;28;8749;-65
2022/04/29 14:12:29;;;;;;;;;63.60;50.40;;;;;;;;5039819;28;8745;-65
2022/04/29 14:14:56;;;;;;;;;62.60;49.40;;;;;;;;5039074;28;8777;-65
2022/04/29 14:17:23;;;;;;;;;67.00;53.00;;;;;;;;5038812;28;8777;-65
2022/04/29 14:19:50;;;;;;;;;68.00;53.60;;;;;;;;5038902;28;8765;-65
2022/04/29 14:22:16;;;;;;;;;67.20;52.20;;;;;;;;5039535;28;8745;-66
2022/04/29 14:24:43;;;;;;;;;64.60;52.40;;;;;;;;5037493;28;8761;-65
2022/04/29 14:27:12;;;;;;;;;63.60;50.60;;;;;;;;5038675;28;8884;-65
2022/04/29 14:29:39;;;;;;;;;65.60;51.20;;;;;;;;5038571;28;8777;-65
2022/04/29 14:32:13;;;;;;;;;64.80;51.20;;;;;;;;5036611;28;8777;-65
2022/04/29 14:34:40;;;;;;;;;64.40;52.20;;;;;;;;5038544;28;8780;-65
2022/04/29 14:37:07;;;;;;;;;66.20;52.00;;;;;;;;5039033;28;8749;-65
2022/04/29 14:39:34;;;;;;;;;58.80;48.20;;;;;;;;5038037;28;8737;-65
2022/04/29 14:42:00;;;;;;;;;63.00;50.20;;;;;;;;5038680;28;8746;-65
2022/04/29 14:44:28;;;;;;;;;60.25;48.00;;;;;;;;5038351;28;8746;-65
2022/04/29 14:46:55;;;;;;;;;62.50;49.50;;;;;;;;5020782;28;8781;-65
2022/04/29 14:49:22;;;;;;;;;60.50;50.25;;;;;;;;5004715;28;8766;-65
2022/04/29 14:51:49;;;;;;;;;65.50;51.00;;;;;;;;4995667;28;8772;-65
2022/04/29 14:54:16;;;;;;;;;63.80;50.00;;;;;;;;5038624;28;8745;-66
2022/04/29 14:56:43;;;;;;;;;61.80;48.40;;;;;;;;5036847;28;8837;-65
2022/04/29 14:59:13;;;;;;;;;60.75;48.00;;;;;;;;5038309;28;8756;-65
2022/04/29 15:01:40;;;;;;;;;67.40;52.80;;;;;;;;5038147;28;8742;-65
2022/04/29 15:04:07;;;;;;;;;64.00;49.25;;;;;;;;5038946;28;8725;-65
2022/04/29 15:06:34;;;;;;;;;65.60;53.20;;;;;;;;5037719;28;8757;-65
2022/04/29 15:17:20;;;;;;;;;61.75;49.00;;;;;;;;5037782;28;8789;-65
2022/04/29 15:19:47;;;;;;;;;60.60;48.80;;;;;;;;5037633;28;8769;-65
2022/04/29 15:22:14;;;;;;;;;56.75;47.00;;;;;;;;5020668;28;8754;-66
2022/04/29 15:24:41;;;;;;;;;63.00;51.40;;;;;;;;5037402;28;8730;-65